Time;durP1;ratioP1;P1;durP2;ratioP2;P2;SDS_P1;SDS_P2;PMS_P1;PMS_P2;Temp;Humidity;BMP_temperature;BMP_pressure;BME280_temperature;BME280_humidity;BME280_pressure;Samples;Min_cycle;Max_cycle;Signal;HPM_P1;HPM_P2
2023/08/11 00:01:26;;;;;;;11.37;7.73;;;;;;;15.52;100.00;100810.13;1469577;88;21619;-80
2023/08/11 00:03:52;;;;;;;7.20;6.40;;;;;;;15.50;100.00;100805.46;1470089;87;21398;-79
2023/08/11 00:06:19;;;;;;;7.50;6.33;;;;;;;15.49;100.00;100809.14;1479305;87;21489;-81
2023/08/11 00:08:45;;;;;;;7.53;6.73;;;;;;;15.51;100.00;100803.14;1474619;88;21375;-85
2023/08/11 00:11:12;;;;;;;6.60;5.83;;;;;;;15.51;100.00;100809.81;1464266;88;21490;-81
2023/08/11 00:13:38;;;;;;;10.43;7.47;;;;;;;15.48;100.00;100807.48;1465479;88;21426;-79
2023/08/11 00:16:04;;;;;;;8.27;5.97;;;;;;;15.48;100.00;100812.82;1484520;87;21411;-81
2023/08/11 00:18:31;;;;;;;7.03;5.77;;;;;;;15.47;100.00;100813.80;1469342;87;21921;-81
2023/08/11 00:20:59;;;;;;;7.07;5.93;;;;;;;15.47;100.00;100814.63;1464543;87;21479;-81
2023/08/11 00:23:26;;;;;;;10.67;6.83;;;;;;;15.49;100.00;100812.64;1464124;88;21412;-80
2023/08/11 00:25:52;;;;;;;8.63;6.27;;;;;;;15.50;100.00;100814.80;1479808;87;21367;-80
2023/08/11 00:28:19;;;;;;;8.57;6.70;;;;;;;15.46;100.00;100814.31;1472752;87;21368;-79
2023/08/11 00:30:45;;;;;;;7.77;6.73;;;;;;;15.39;100.00;100819.98;1477662;87;21663;-79
2023/08/11 00:33:11;;;;;;;10.17;6.23;;;;;;;15.30;100.00;100815.16;1471896;88;22291;-79
2023/08/11 00:35:37;;;;;;;12.83;6.23;;;;;;;15.23;100.00;100812.85;1464899;87;21545;-80
2023/08/11 00:38:04;;;;;;;8.50;6.73;;;;;;;15.16;100.00;100819.84;1470828;88;21338;-80
2023/08/11 00:40:30;;;;;;;7.73;6.43;;;;;;;15.09;100.00;100814.86;1470301;87;21495;-80
2023/08/11 00:42:57;;;;;;;9.07;6.70;;;;;;;15.05;100.00;100821.55;1480229;87;21368;-79
2023/08/11 00:45:23;;;;;;;9.13;7.73;;;;;;;15.02;100.00;100827.20;1473516;87;21442;-78
2023/08/11 00:47:50;;;;;;;10.13;7.30;;;;;;;14.99;100.00;100828.84;1474422;87;22470;-78
2023/08/11 00:50:16;;;;;;;8.23;7.20;;;;;;;14.98;100.00;100825.86;1467045;88;21353;-80
2023/08/11 00:52:49;;;;;;;9.00;7.40;;;;;;;14.95;100.00;100826.19;1468734;87;21641;-81
2023/08/11 00:55:14;;;;;;;9.23;6.42;;;;;;;14.98;100.00;100835.19;1475000;88;21463;-79
2023/08/11 00:57:40;;;;;;;8.77;6.53;;;;;;;14.96;100.00;100833.17;1471881;88;21479;-81
2023/08/11 01:00:12;;;;;;;6.93;5.90;;;;;;;14.94;100.00;100835.20;1477204;87;21427;-80
2023/08/11 01:02:42;;;;;;;10.70;6.43;;;;;;;14.88;100.00;100842.02;1470370;88;21407;-83
2023/08/11 01:05:15;;;;;;;6.93;5.50;;;;;;;14.81;100.00;100839.16;1474627;87;22272;-79
2023/08/11 01:07:59;;;;;;;5.93;5.20;;;;;;;14.77;100.00;100835.68;1472283;88;21545;-79
2023/08/11 01:10:48;;;;;;;6.97;5.90;;;;;;;14.76;100.00;100835.33;1477077;87;21677;-79
2023/08/11 01:13:19;;;;;;;10.63;4.97;;;;;;;14.73;100.00;100843.17;1473217;88;21346;-79
2023/08/11 01:16:00;;;;;;;6.00;5.42;;;;;;;14.68;100.00;100837.50;1472986;87;21412;-80
2023/08/11 01:18:31;;;;;;;7.93;7.03;;;;;;;14.63;100.00;100831.83;1470275;88;21479;-80
2023/08/11 01:21:05;;;;;;;5.97;5.10;;;;;;;14.58;100.00;100834.14;1472590;87;21523;-80
2023/08/11 01:23:32;;;;;;;6.03;5.47;;;;;;;14.55;100.00;100833.97;1470476;88;22543;-78
2023/08/11 01:25:59;;;;;;;6.00;5.43;;;;;;;14.51;100.00;100835.27;1475848;88;21383;-80
2023/08/11 01:28:25;;;;;;;7.33;5.60;;;;;;;14.50;100.00;100833.62;1472951;88;21479;-79
2023/08/11 01:30:52;;;;;;;6.30;5.20;;;;;;;14.51;100.00;100829.12;1469577;88;21368;-80
2023/08/11 01:33:18;;;;;;;10.50;6.30;;;;;;;14.50;100.00;100832.75;1482652;88;21418;-80
2023/08/11 01:35:44;;;;;;;6.07;5.47;;;;;;;14.49;100.00;100835.09;1479224;87;21308;-79
2023/08/11 01:38:12;;;;;;;5.43;4.73;;;;;;;14.50;100.00;100822.10;1472085;88;21500;-80
2023/08/11 01:40:39;;;;;;;7.30;6.43;;;;;;;14.51;100.00;100823.79;1481056;87;21354;-80
2023/08/11 01:43:10;;;;;;;8.80;5.40;;;;;;;14.47;100.00;100815.27;1474223;87;21510;-81
2023/08/11 01:45:36;;;;;;;9.20;5.35;;;;;;;14.45;100.00;100820.78;1467324;88;21420;-82
2023/08/11 01:48:04;;;;;;;8.73;6.50;;;;;;;14.39;100.00;100825.42;1471149;87;22344;-82
2023/08/11 01:50:33;;;;;;;8.87;8.03;;;;;;;14.35;100.00;100814.75;1472880;87;21688;-81
2023/08/11 01:52:59;;;;;;;6.33;5.43;;;;;;;14.31;100.00;100817.41;1470011;87;21426;-80
2023/08/11 01:55:28;;;;;;;6.40;5.80;;;;;;;14.29;100.00;100820.72;1479646;88;22548;-81
2023/08/11 01:57:55;;;;;;;6.13;4.87;;;;;;;14.25;100.00;100818.06;1465696;88;21478;-81
2023/08/11 02:00:21;;;;;;;5.30;4.77;;;;;;;14.21;100.00;100822.03;1473100;87;21316;-81
2023/08/11 02:02:49;;;;;;;7.00;5.90;;;;;;;14.23;100.00;100825.38;1471397;88;21526;-80
2023/08/11 02:05:15;;;;;;;7.73;5.63;;;;;;;14.25;100.00;100824.72;1472139;87;21397;-81
2023/08/11 02:07:44;;;;;;;6.43;5.23;;;;;;;14.29;100.00;100826.55;1472285;87;22455;-80
2023/08/11 02:10:16;;;;;;;6.17;5.27;;;;;;;14.32;100.00;100821.73;1474563;87;21449;-80
2023/08/11 02:12:41;;;;;;;7.03;5.93;;;;;;;14.33;100.00;100820.76;1474428;88;21539;-79
2023/08/11 02:15:08;;;;;;;8.90;6.33;;;;;;;14.36;100.00;100820.43;1456650;88;22196;-80
2023/08/11 02:17:35;;;;;;;7.37;6.63;;;;;;;14.39;100.00;100826.76;1470126;87;21435;-80
2023/08/11 02:20:13;;;;;;;8.03;6.97;;;;;;;14.41;100.00;100830.58;1463841;88;21361;-80
2023/08/11 02:22:29;;;;;;;6.53;5.83;;;;;;;14.40;100.00;100828.91;1468803;87;21515;-80
2023/08/11 02:24:56;;;;;;;6.97;5.90;;;;;;;14.37;100.00;100823.41;1476427;87;21376;-79
2023/08/11 02:27:22;;;;;;;7.00;6.17;;;;;;;14.33;100.00;100822.09;1477161;87;22623;-81
2023/08/11 02:29:49;;;;;;;6.30;5.63;;;;;;;14.29;100.00;100830.05;1470628;87;21405;-79
2023/08/11 02:32:17;;;;;;;9.43;6.03;;;;;;;14.28;100.00;100820.91;1469975;87;21566;-79
2023/08/11 02:34:43;;;;;;;6.97;6.23;;;;;;;14.28;100.00;100818.24;1474734;87;21412;-80
2023/08/11 02:37:10;;;;;;;8.50;6.30;;;;;;;14.29;100.00;100825.22;1477570;87;21537;-79
2023/08/11 02:39:36;;;;;;;6.43;5.30;;;;;;;14.28;100.00;100819.07;1476351;88;21604;-80
2023/08/11 02:42:03;;;;;;;6.77;5.07;;;;;;;14.29;100.00;100824.72;1473888;87;21420;-79
2023/08/11 02:44:30;;;;;;;6.20;5.33;;;;;;;14.33;100.00;100815.94;1470497;88;21376;-79
2023/08/11 02:46:56;;;;;;;6.77;6.10;;;;;;;14.33;100.00;100823.92;1467272;87;21553;-80
2023/08/11 02:49:22;;;;;;;7.47;6.23;;;;;;;14.30;100.00;100826.41;1462530;88;21426;-80
2023/08/11 02:51:48;;;;;;;11.27;6.30;;;;;;;14.31;100.00;100818.75;1468861;87;21353;-79
2023/08/11 02:54:14;;;;;;;8.30;6.10;;;;;;;14.34;100.00;100822.41;1476471;87;21419;-78
2023/08/11 02:56:48;;;;;;;6.53;5.20;;;;;;;14.37;100.00;100816.76;1474044;87;21494;-79
2023/08/11 02:59:14;;;;;;;7.43;5.50;;;;;;;14.41;100.00;100826.11;1471624;87;21338;-80
2023/08/11 03:01:40;;;;;;;6.87;5.03;;;;;;;14.41;100.00;100826.11;1474783;87;22248;-79
2023/08/11 03:04:07;;;;;;;7.00;5.23;;;;;;;14.40;100.00;100829.75;1479997;87;21412;-80
2023/08/11 03:06:34;;;;;;;7.07;5.20;;;;;;;14.39;100.00;100828.09;1471283;87;21530;-79
2023/08/11 03:09:00;;;;;;;6.03;5.43;;;;;;;14.38;100.00;100841.05;1469489;87;21463;-81
2023/08/11 03:11:26;;;;;;;5.77;5.00;;;;;;;14.37;100.00;100841.23;1478277;87;21530;-81
2023/08/11 03:13:54;;;;;;;5.43;4.93;;;;;;;14.34;100.00;100842.38;1466885;87;21368;-80
2023/08/11 03:16:20;;;;;;;6.43;5.20;;;;;;;14.34;100.00;100845.55;1468383;88;21406;-81
2023/08/11 03:18:46;;;;;;;7.33;5.47;;;;;;;14.31;100.00;100844.54;1485547;87;21346;-81
2023/08/11 03:21:12;;;;;;;6.27;5.67;;;;;;;14.30;100.00;100841.52;1468175;88;21435;-81
2023/08/11 03:23:39;;;;;;;6.80;6.10;;;;;;;14.25;100.00;100836.70;1459259;88;21588;-82
2023/08/11 03:26:05;;;;;;;6.07;5.47;;;;;;;14.24;100.00;100843.00;1472650;88;21368;-80
2023/08/11 03:28:31;;;;;;;7.80;5.43;;;;;;;14.23;100.00;100845.34;1474539;87;21309;-83
2023/08/11 03:30:59;;;;;;;8.03;5.73;;;;;;;14.27;100.00;100843.18;1481897;87;22240;-83
2023/08/11 03:33:26;;;;;;;6.93;5.97;;;;;;;14.29;100.00;100843.86;1477432;87;21375;-84
2023/08/11 03:35:52;;;;;;;8.10;6.43;;;;;;;14.31;100.00;100840.05;1475902;87;21545;-83
2023/08/11 03:38:18;;;;;;;6.03;5.43;;;;;;;14.33;100.00;100847.37;1471923;87;21346;-82
2023/08/11 03:40:44;;;;;;;5.93;5.33;;;;;;;14.36;100.00;100849.72;1478213;87;22433;-82
2023/08/11 03:43:10;;;;;;;9.10;5.93;;;;;;;14.39;100.00;100849.89;1478632;88;21390;-83
2023/08/11 03:45:37;;;;;;;7.17;6.47;;;;;;;14.40;100.00;100843.56;1468917;87;21382;-83
2023/08/11 03:48:04;;;;;;;7.33;6.00;;;;;;;14.41;100.00;100843.89;1480763;87;22234;-83
2023/08/11 03:50:31;;;;;;;12.13;6.27;;;;;;;14.40;100.00;100847.05;1480823;87;22439;-82
2023/08/11 03:52:57;;;;;;;8.07;6.03;;;;;;;14.40;100.00;100852.38;1469016;87;22513;-82
2023/08/11 03:55:23;;;;;;;8.73;5.47;;;;;;;14.39;100.00;100849.39;1464276;88;21397;-83
2023/08/11 03:57:51;;;;;;;7.83;6.20;;;;;;;14.38;100.00;100851.70;1475828;87;21529;-83
2023/08/11 04:00:19;;;;;;;9.20;5.60;;;;;;;14.39;100.00;100855.22;1477737;88;21420;-83
2023/08/11 04:02:45;;;;;;;7.50;5.97;;;;;;;14.40;100.00;100848.89;1483190;87;21584;-83
2023/08/11 04:05:12;;;;;;;7.80;5.03;;;;;;;14.40;100.00;100851.05;1468441;88;21464;-83
2023/08/11 04:07:39;;;;;;;7.20;6.27;;;;;;;14.40;100.00;100859.03;1476893;87;21552;-83
2023/08/11 04:10:10;;;;;;;6.80;6.17;;;;;;;14.42;100.00;100854.89;1471488;87;21523;-82
2023/08/11 04:12:37;;;;;;;9.70;6.43;;;;;;;14.43;100.00;100857.37;1481119;88;21598;-82
2023/08/11 04:15:06;;;;;;;7.10;5.57;;;;;;;14.44;100.00;100861.73;1473799;87;21492;-83
2023/08/11 04:17:33;;;;;;;7.63;5.33;;;;;;;14.47;100.00;100853.06;1476577;87;21493;-83
2023/08/11 04:20:00;;;;;;;6.87;6.00;;;;;;;14.49;100.00;100860.39;1479786;88;22417;-83
2023/08/11 04:22:27;;;;;;;5.83;5.10;;;;;;;14.52;100.00;100861.43;1476078;87;21512;-83
2023/08/11 04:24:53;;;;;;;6.03;5.10;;;;;;;14.56;100.00;100857.47;1468176;88;21478;-83
2023/08/11 04:27:19;;;;;;;9.27;5.20;;;;;;;14.58;100.00;100853.61;1468991;88;21272;-83
2023/08/11 04:29:45;;;;;;;7.83;5.70;;;;;;;14.62;100.00;100854.14;1466741;88;21534;-83
2023/08/11 04:32:12;;;;;;;8.33;5.33;;;;;;;14.66;100.00;100862.95;1466454;88;21346;-83
2023/08/11 04:34:38;;;;;;;5.93;5.20;;;;;;;14.68;100.00;100864.64;1468410;88;21389;-83
2023/08/11 04:37:05;;;;;;;7.13;5.40;;;;;;;14.70;100.00;100865.30;1463026;88;21291;-83
2023/08/11 04:39:31;;;;;;;6.57;4.70;;;;;;;14.73;100.00;100866.30;1472038;88;21589;-83
2023/08/11 04:41:58;;;;;;;5.57;4.57;;;;;;;14.77;100.00;100868.48;1474414;88;22299;-83
2023/08/11 04:44:24;;;;;;;5.27;4.17;;;;;;;14.85;100.00;100869.00;1471520;87;21553;-83
2023/08/11 04:46:50;;;;;;;5.63;4.90;;;;;;;14.92;100.00;100866.00;1469374;88;21449;-80
2023/08/11 04:49:17;;;;;;;6.33;5.73;;;;;;;14.98;100.00;100866.66;1475182;88;21538;-80
2023/08/11 04:51:43;;;;;;;7.80;5.53;;;;;;;15.05;100.00;100874.34;1483287;88;22174;-82
2023/08/11 04:54:11;;;;;;;21.77;6.93;;;;;;;15.12;100.00;100870.51;1474091;88;21603;-82
2023/08/11 04:56:37;;;;;;;7.00;5.53;;;;;;;15.18;100.00;100872.50;1477945;88;22292;-82
2023/08/11 04:59:03;;;;;;;7.10;5.80;;;;;;;15.25;100.00;100872.19;1471643;87;21383;-84
2023/08/11 05:01:30;;;;;;;12.70;5.40;;;;;;;15.31;100.00;100868.84;1473586;87;21361;-83
2023/08/11 05:03:56;;;;;;;11.23;5.60;;;;;;;15.39;100.00;100865.83;1477654;88;21618;-85
2023/08/11 05:06:22;;;;;;;8.43;5.50;;;;;;;15.46;100.00;100872.99;1470106;87;21384;-84
2023/08/11 05:08:48;;;;;;;7.07;5.40;;;;;;;15.52;100.00;100878.16;1469404;88;21523;-83
2023/08/11 05:11:14;;;;;;;6.57;5.43;;;;;;;15.58;100.00;100877.48;1471492;88;22387;-84
2023/08/11 05:13:41;;;;;;;6.63;5.93;;;;;;;15.64;100.00;100879.47;1473689;87;21570;-82
2023/08/11 05:16:07;;;;;;;6.97;5.30;;;;;;;15.71;100.00;100889.02;1467641;87;21636;-82
2023/08/11 05:18:34;;;;;;;7.93;4.87;;;;;;;15.78;100.00;100891.31;1475531;87;21582;-82
2023/08/11 05:21:00;;;;;;;9.50;4.83;;;;;;;15.87;100.00;100882.28;1477774;87;21353;-83
2023/08/11 05:23:26;;;;;;;6.50;5.83;;;;;;;15.95;100.00;100885.44;1468570;87;21560;-83
2023/08/11 05:25:54;;;;;;;5.97;4.87;;;;;;;15.98;100.00;100890.43;1473725;88;21391;-83
2023/08/11 05:28:21;;;;;;;6.50;5.17;;;;;;;16.07;100.00;100892.57;1475941;87;21530;-83
2023/08/11 05:30:48;;;;;;;5.77;5.20;;;;;;;16.14;100.00;100891.72;1478826;88;21586;-82
2023/08/11 05:33:14;;;;;;;4.77;4.30;;;;;;;16.20;100.00;100890.20;1472415;88;22278;-82
2023/08/11 05:35:40;;;;;;;5.40;4.30;;;;;;;16.24;100.00;100884.83;1473731;88;21361;-82
2023/08/11 05:38:07;;;;;;;4.93;4.30;;;;;;;16.38;100.00;100888.61;1466880;88;21389;-82
2023/08/11 05:40:33;;;;;;;8.97;5.43;;;;;;;16.47;100.00;100886.22;1471886;88;21441;-80
2023/08/11 05:42:59;;;;;;;8.50;4.73;;;;;;;16.59;100.00;100887.48;1475048;87;21294;-80
2023/08/11 05:45:25;;;;;;;18.83;6.40;;;;;;;16.70;100.00;100893.77;1466253;87;21294;-79
2023/08/11 05:47:51;;;;;;;6.00;4.70;;;;;;;16.78;100.00;100886.76;1474911;87;22204;-80
2023/08/11 05:50:18;;;;;;;11.33;4.70;;;;;;;16.89;100.00;100890.36;1480074;87;21383;-81
2023/08/11 05:52:44;;;;;;;13.93;5.73;;;;;;;17.01;100.00;100883.58;1475212;87;22284;-82
2023/08/11 05:55:11;;;;;;;6.43;4.43;;;;;;;17.09;100.00;100892.88;1469429;87;21457;-83
2023/08/11 05:57:37;;;;;;;18.73;4.87;;;;;;;17.23;100.00;100891.75;1470012;87;21538;-83
2023/08/11 06:00:05;;;;;;;9.40;4.67;;;;;;;17.36;100.00;100894.66;1475950;87;22329;-83
2023/08/11 06:02:31;;;;;;;9.10;4.15;;;;;;;17.43;100.00;100892.09;1474660;87;21708;-83
2023/08/11 06:04:58;;;;;;;5.42;4.28;;;;;;;17.51;100.00;100897.38;1476215;87;22351;-83
2023/08/11 06:07:24;;;;;;;6.33;4.65;;;;;;;17.69;100.00;100899.70;1474707;87;21504;-81
2023/08/11 06:09:50;;;;;;;7.15;4.78;;;;;;;17.74;100.00;100901.33;1470450;87;21353;-83
2023/08/11 06:12:16;;;;;;;6.47;4.47;;;;;;;17.90;100.00;100905.73;1471767;88;21360;-83
2023/08/11 06:14:43;;;;;;;14.47;4.08;;;;;;;17.97;100.00;100908.80;1468840;88;22329;-83
2023/08/11 06:17:09;;;;;;;4.55;4.08;;;;;;;18.11;100.00;100909.00;1474937;88;21361;-83
2023/08/11 06:19:35;;;;;;;11.45;4.53;;;;;;;18.24;100.00;100911.84;1474588;87;21470;-82
2023/08/11 06:22:02;;;;;;;7.92;4.22;;;;;;;18.35;100.00;100913.22;1472873;87;21279;-82
2023/08/11 06:24:29;;;;;;;4.75;4.08;;;;;;;18.48;100.00;100916.08;1481849;87;21383;-83
2023/08/11 06:26:55;;;;;;;13.72;4.28;;;;;;;18.59;100.00;100920.96;1467738;88;21530;-82
2023/08/11 06:29:22;;;;;;;7.55;3.75;;;;;;;18.70;100.00;100922.30;1467221;88;21337;-82
2023/08/11 06:31:48;;;;;;;6.75;3.98;;;;;;;18.77;100.00;100921.91;1474042;87;21383;-83
2023/08/11 06:34:17;;;;;;;10.88;4.33;;;;;;;18.87;100.00;100917.09;1472159;88;22188;-82
2023/08/11 06:36:47;;;;;;;7.95;4.33;;;;;;;19.01;100.00;100918.55;1469759;87;21383;-82
2023/08/11 06:39:14;;;;;;;6.37;4.33;;;;;;;19.10;100.00;100920.08;1387317;88;21354;-83
2023/08/11 06:41:41;;;;;;;4.47;4.08;;;;;;;19.22;100.00;100927.09;1397349;87;21324;-84
2023/08/11 06:44:08;;;;;;;5.15;3.85;;;;;;;19.30;100.00;100929.14;1397743;87;21450;-83
2023/08/11 06:46:34;;;;;;;6.30;4.22;;;;;;;19.44;100.00;100930.61;1404011;88;21294;-84
2023/08/11 06:49:01;;;;;;;4.42;3.67;;;;;;;19.50;100.00;100931.17;1538536;88;21457;-83
2023/08/11 06:51:27;;;;;;;10.48;3.90;;;;;;;19.58;100.00;100928.34;1557977;87;21191;-83
2023/08/11 06:53:53;;;;;;;3.90;3.55;;;;;;;19.68;100.00;100927.55;1474469;88;21456;-82
2023/08/11 06:56:19;;;;;;;5.95;4.17;;;;;;;19.75;100.00;100931.61;1464701;88;21487;-82
2023/08/11 06:58:46;;;;;;;13.18;4.70;;;;;;;19.82;100.00;100933.33;1472465;87;21471;-83
2023/08/11 07:01:14;;;;;;;10.13;4.85;;;;;;;19.95;100.00;100930.41;1473090;87;21315;-83
2023/08/11 07:03:40;;;;;;;5.65;3.77;;;;;;;19.97;100.00;100929.70;1473630;87;21383;-83
2023/08/11 07:06:06;;;;;;;11.20;3.52;;;;;;;20.08;100.00;100933.16;1463356;88;21375;-82
2023/08/11 07:08:33;;;;;;;3.90;3.50;;;;;;;20.18;100.00;100940.36;1476466;87;21345;-82
2023/08/11 07:10:59;;;;;;;4.33;3.83;;;;;;;20.05;100.00;100936.23;1471548;87;21594;-83
2023/08/11 07:13:25;;;;;;;4.05;3.65;;;;;;;20.08;100.00;100934.50;1476011;87;21524;-81
2023/08/11 07:15:56;;;;;;;4.50;3.83;;;;;;;20.19;100.00;100941.19;1474638;87;21368;-83
2023/08/11 07:18:23;;;;;;;6.90;3.10;;;;;;;20.17;100.00;100936.02;1474176;88;22410;-83
2023/08/11 07:20:50;;;;;;;9.75;3.83;;;;;;;20.25;100.00;100941.24;1396881;88;21280;-83
2023/08/11 07:23:16;;;;;;;8.60;3.98;;;;;;;20.54;100.00;100935.28;1402612;87;21280;-82
2023/08/11 07:25:43;;;;;;;5.12;3.40;;;;;;;20.54;100.00;100935.28;1396616;87;21357;-83
2023/08/11 07:28:09;;;;;;;4.47;3.58;;;;;;;20.62;100.00;100926.21;1397791;87;21265;-83
2023/08/11 07:30:36;;;;;;;4.03;3.67;;;;;;;20.83;100.00;100934.66;1404751;87;21229;-82
2023/08/11 07:33:03;;;;;;;8.03;3.80;;;;;;;20.89;100.00;100939.25;1526648;88;21272;-86
2023/08/11 07:35:30;;;;;;;6.47;4.20;;;;;;;20.89;100.00;100943.28;1391249;88;22101;-86
2023/08/11 07:37:56;;;;;;;8.13;3.60;;;;;;;20.99;100.00;100944.23;1391408;88;21324;-85
2023/08/11 07:40:23;;;;;;;3.98;3.17;;;;;;;21.01;100.00;100941.64;1447398;88;21570;-86
2023/08/11 07:42:49;;;;;;;5.10;3.22;;;;;;;21.09;100.00;100944.64;1467269;88;21360;-85
2023/08/11 07:45:15;;;;;;;6.28;3.30;;;;;;;21.13;100.00;100942.70;1471685;87;22455;-86
2023/08/11 07:47:42;;;;;;;5.35;3.00;;;;;;;21.26;100.00;100947.78;1474446;88;21456;-85
2023/08/11 07:50:09;;;;;;;4.85;3.50;;;;;;;21.28;98.44;100941.16;1471948;87;21544;-86
2023/08/11 07:52:35;;;;;;;6.65;3.05;;;;;;;21.29;97.05;100941.98;1471069;87;22408;-86
2023/08/11 07:55:01;;;;;;;9.88;3.08;;;;;;;21.42;97.83;100943.38;1474679;87;21589;-83
2023/08/11 07:57:28;;;;;;;4.58;2.72;;;;;;;21.57;96.75;100948.03;1473031;87;21390;-85
2023/08/11 07:59:54;;;;;;;9.68;3.05;;;;;;;21.63;97.14;100948.55;1472978;88;21339;-84
2023/08/11 08:02:22;;;;;;;9.10;3.20;;;;;;;21.74;97.80;100947.62;1471474;87;21552;-86
2023/08/11 08:04:48;;;;;;;9.28;3.33;;;;;;;21.93;98.36;100944.09;1472658;87;21368;-85
2023/08/11 08:07:15;;;;;;;4.40;3.10;;;;;;;22.06;95.76;100944.04;1472754;87;21412;-86
2023/08/11 08:09:42;;;;;;;4.25;2.65;;;;;;;22.14;94.98;100947.56;1476446;87;22365;-83
2023/08/11 08:12:09;;;;;;;8.38;2.85;;;;;;;22.17;93.12;100946.64;1472408;87;21338;-86
2023/08/11 08:14:35;;;;;;;7.22;2.90;;;;;;;22.22;89.91;100948.72;1476501;87;21603;-85
2023/08/11 08:17:02;;;;;;;4.60;2.25;;;;;;;22.36;91.37;100946.29;1474995;87;21427;-86
2023/08/11 08:19:29;;;;;;;3.80;2.37;;;;;;;22.49;92.79;100944.88;1471500;87;21330;-86
2023/08/11 08:21:55;;;;;;;3.20;2.25;;;;;;;22.57;86.05;100949.73;1463283;88;21516;-86
2023/08/11 08:24:22;;;;;;;3.35;2.60;;;;;;;22.69;90.72;100944.79;1471581;87;21360;-84
2023/08/11 08:26:48;;;;;;;3.05;2.72;;;;;;;22.65;88.25;100948.15;1468984;87;21427;-86
2023/08/11 08:29:14;;;;;;;3.10;2.33;;;;;;;22.64;89.06;100950.52;1461910;88;21523;-86
2023/08/11 08:31:41;;;;;;;6.22;2.70;;;;;;;22.59;86.54;100951.70;1469303;87;21338;-86
2023/08/11 08:34:07;;;;;;;4.80;2.98;;;;;;;22.69;89.87;100948.02;1472761;87;21420;-87
2023/08/11 08:36:34;;;;;;;5.75;3.22;;;;;;;22.90;90.98;100946.36;1471453;87;22284;-84
2023/08/11 08:39:00;;;;;;;5.30;3.25;;;;;;;23.10;89.15;100947.62;1464066;88;21390;-87
2023/08/11 08:41:29;;;;;;;8.38;2.77;;;;;;;23.30;89.81;100943.41;1471528;87;21648;-85
2023/08/11 08:43:56;;;;;;;5.17;2.83;;;;;;;23.40;89.43;100948.34;1475753;87;22248;-86
2023/08/11 08:46:28;;;;;;;3.62;2.35;;;;;;;23.42;89.91;100955.18;1471577;87;21500;-86
2023/08/11 08:49:24;;;;;;;3.12;2.65;;;;;;;23.53;89.34;100956.31;1470492;87;21476;-87
2023/08/11 08:51:51;;;;;;;4.95;2.17;;;;;;;23.71;88.95;100958.30;1471977;87;21523;-86
2023/08/11 08:54:18;;;;;;;8.58;3.77;;;;;;;23.94;89.46;100955.47;1472487;87;21427;-86
2023/08/11 08:56:45;;;;;;;5.50;2.67;;;;;;;24.03;87.69;100958.20;1475367;87;22455;-87
2023/08/11 08:59:11;;;;;;;2.25;1.98;;;;;;;24.16;87.15;100955.34;1472987;87;21442;-85
2023/08/11 09:01:41;;;;;;;4.87;2.40;;;;;;;24.14;86.64;100951.20;1467626;87;21643;-86
2023/08/11 09:04:09;;;;;;;5.53;2.08;;;;;;;24.22;87.97;100948.20;1473555;87;21405;-85
2023/08/11 09:06:35;;;;;;;7.03;2.10;;;;;;;23.96;84.83;100953.38;1471136;87;21504;-85
2023/08/11 09:09:07;;;;;;;5.45;2.10;;;;;;;23.99;84.30;100947.52;1473653;87;21539;-85
2023/08/11 09:11:31;;;;;;;3.52;2.30;;;;;;;24.13;85.20;100951.73;1472127;87;21703;-87
2023/08/11 09:14:07;;;;;;;4.80;2.27;;;;;;;24.19;82.76;100948.13;1465865;87;21560;-85
2023/08/11 09:16:35;;;;;;;2.87;2.35;;;;;;;24.20;85.09;100950.34;1392446;89;21434;-86
2023/08/11 09:19:02;;;;;;;2.95;2.12;;;;;;;23.98;81.88;100952.64;1400687;87;21221;-86
2023/08/11 09:21:30;;;;;;;4.37;2.00;;;;;;;24.18;85.54;100949.73;1556957;87;21251;-86
2023/08/11 09:23:57;;;;;;;4.70;1.50;;;;;;;24.13;72.81;100942.27;1395127;87;21206;-85
2023/08/11 09:26:24;;;;;;;5.33;1.85;;;;;;;23.90;56.00;100940.75;1397515;87;21296;-85
2023/08/11 09:28:51;;;;;;;2.87;2.15;;;;;;;24.07;60.50;100952.11;1396428;87;22249;-86
2023/08/11 09:31:25;;;;;;;3.42;1.90;;;;;;;24.27;60.37;100945.66;1402882;87;21258;-87
2023/08/11 09:33:52;;;;;;;8.38;2.02;;;;;;;24.37;60.27;100950.53;1395550;87;21310;-86
2023/08/11 09:36:20;;;;;;;2.58;2.05;;;;;;;24.44;59.42;100950.80;1401747;87;21235;-86
2023/08/11 09:38:49;;;;;;;1.98;1.77;;;;;;;24.56;59.70;100952.20;1479364;88;21523;-85
2023/08/11 09:41:17;;;;;;;2.00;1.80;;;;;;;24.62;54.81;100948.59;1473752;88;22424;-84
2023/08/11 09:43:48;;;;;;;1.70;1.60;;;;;;;24.69;52.17;100942.58;1463288;88;21375;-86
2023/08/11 09:46:16;;;;;;;9.13;2.20;;;;;;;24.78;49.32;100945.80;1461829;88;21966;-84
2023/08/11 09:48:42;;;;;;;4.33;2.00;;;;;;;24.87;48.81;100947.12;1527866;87;22099;-85
2023/08/11 09:51:10;;;;;;;3.20;1.90;;;;;;;24.76;41.09;100941.13;1402651;87;21384;-85
2023/08/11 09:53:40;;;;;;;2.02;1.82;;;;;;;24.83;43.08;100942.37;1499216;87;22175;-86
2023/08/11 09:56:08;;;;;;;;;;;;;;;24.84;43.72;100946.23;1395478;88;21258;-87
2023/08/11 09:58:38;;;;;;;3.05;1.50;;;;;;;24.97;42.89;100945.20;1556920;87;20268;-86
2023/08/11 10:01:09;;;;;;;3.52;1.87;;;;;;;25.18;43.87;100942.55;1552223;88;22289;-85
2023/08/11 10:03:47;;;;;;;3.02;1.50;;;;;;;25.28;43.18;100940.61;1467705;88;21501;-85
2023/08/11 10:06:21;;;;;;;2.47;1.40;;;;;;;25.42;43.36;100940.70;1472513;87;21368;-87
2023/08/11 10:08:50;;;;;;;2.20;1.45;;;;;;;25.19;40.59;100939.59;1473703;87;21560;-85
2023/08/11 10:11:20;;;;;;;4.15;1.75;;;;;;;25.06;42.37;100938.42;1470075;87;21384;-86
2023/08/11 10:13:47;;;;;;;2.27;2.00;;;;;;;25.07;41.38;100943.30;1475860;87;21500;-85
2023/08/11 10:16:14;;;;;;;1.80;1.42;;;;;;;24.98;40.34;100940.10;1471937;88;21316;-87
2023/08/11 10:18:43;;;;;;;2.52;1.37;;;;;;;24.90;38.52;100939.07;1473229;87;21339;-85
2023/08/11 10:21:10;;;;;;;1.42;1.32;;;;;;;25.00;39.87;100946.09;1471539;87;21479;-85
2023/08/11 10:23:37;;;;;;;4.10;1.72;;;;;;;24.87;40.56;100940.88;1467166;88;21470;-85
2023/08/11 10:26:04;;;;;;;3.37;1.50;;;;;;;24.99;39.95;100937.69;1464815;88;21345;-85
2023/08/11 10:28:33;;;;;;;6.85;1.70;;;;;;;24.99;40.01;100933.62;1473622;87;21455;-86
2023/08/11 10:31:02;;;;;;;1.62;1.47;;;;;;;25.03;41.54;100938.89;1463022;88;21390;-85
2023/08/11 10:33:31;;;;;;;2.33;1.70;;;;;;;25.10;39.32;100940.95;1470667;87;21471;-86
2023/08/11 10:36:00;;;;;;;;;;;;;;;25.21;40.32;100936.67;1468492;87;22484;-84
2023/08/11 10:38:32;;;;;;;2.52;1.70;;;;;;;25.31;40.07;100937.44;1473262;87;20347;-86
2023/08/11 10:41:05;;;;;;;1.30;1.17;;;;;;;25.32;41.13;100930.45;1470578;87;22240;-86
2023/08/11 10:43:35;;;;;;;2.35;1.50;;;;;;;25.48;41.76;100932.98;1471737;87;21345;-85
2023/08/11 10:46:17;;;;;;;;;;;;;;;25.70;40.70;100933.78;1465423;87;21728;-85
2023/08/11 10:48:43;;;;;;;5.55;1.55;;;;;;;25.61;38.52;100935.48;1470347;88;20407;-87
2023/08/11 10:51:32;;;;;;;2.98;1.65;;;;;;;25.71;39.99;100938.13;1471542;87;21441;-86
2023/08/11 10:54:11;;;;;;;6.08;1.72;;;;;;;25.77;38.69;100935.83;1475019;87;21733;-86
2023/08/11 10:56:41;;;;;;;5.70;1.95;;;;;;;25.69;39.86;100930.76;1472607;87;21375;-87
2023/08/11 10:59:17;;;;;;;5.20;2.22;;;;;;;25.70;38.94;100924.30;1448295;87;21508;-87
2023/08/11 11:01:51;;;;;;;3.22;1.87;;;;;;;25.76;39.65;100922.81;1479928;87;22801;-88
2023/08/11 11:04:20;;;;;;;3.60;1.50;;;;;;;25.71;39.74;100920.52;1474987;88;21641;-86
2023/08/11 11:06:48;;;;;;;2.80;1.80;;;;;;;25.91;39.58;100914.22;1473212;88;21308;-86
2023/08/11 11:09:16;;;;;;;2.25;1.42;;;;;;;26.14;40.37;100918.78;1474802;88;21308;-86
2023/08/11 11:11:43;;;;;;;4.33;1.70;;;;;;;26.05;38.07;100910.20;1477319;88;21383;-86
2023/08/11 11:14:11;;;;;;;4.37;1.75;;;;;;;26.18;39.29;100908.28;1474067;87;21360;-88
2023/08/11 11:16:39;;;;;;;3.90;1.52;;;;;;;26.16;37.98;100911.78;1473667;88;21310;-87
2023/08/11 11:19:08;;;;;;;4.95;1.47;;;;;;;26.23;37.68;100911.10;1473459;88;21538;-87
2023/08/11 11:21:37;;;;;;;1.83;1.70;;;;;;;26.21;36.38;100914.58;1472225;87;22336;-87